Time;durP1;ratioP1;P1;durP2;ratioP2;P2;SDS_P1;SDS_P2;PMS_P1;PMS_P2;Temp;Humidity;BMP_temperature;BMP_pressure;BME280_temperature;BME280_humidity;BME280_pressure;Samples;Min_cycle;Max_cycle;Signal;HPM_P1;HPM_P2
2022/10/12 00:00:15;;;;;;;9.37;5.00;;;;;;;7.47;90.80;102712.66;4989761;28;20665;-70
2022/10/12 00:02:41;;;;;;;8.80;4.73;;;;;;;7.50;90.68;102710.28;4988893;28;20215;-71
2022/10/12 00:05:07;;;;;;;9.97;4.73;;;;;;;7.53;91.46;102713.03;4989342;28;20593;-71
2022/10/12 00:07:32;;;;;;;9.43;4.97;;;;;;;7.56;91.68;102711.53;4987265;28;20645;-71
2022/10/12 00:09:58;;;;;;;7.47;4.43;;;;;;;7.63;92.01;102705.16;4987515;28;20198;-71
2022/10/12 00:12:23;;;;;;;10.13;4.43;;;;;;;7.64;92.21;102715.44;4987574;28;20231;-70
2022/10/12 00:14:49;;;;;;;9.30;4.93;;;;;;;7.66;92.67;102713.88;4993051;28;20204;-71
2022/10/12 00:17:15;;;;;;;9.10;4.77;;;;;;;7.74;92.17;102717.75;4989258;28;20215;-71
2022/10/12 00:19:41;;;;;;;10.40;4.73;;;;;;;7.81;94.09;102719.91;4986279;28;20202;-71
2022/10/12 00:22:06;;;;;;;7.07;4.20;;;;;;;7.89;94.31;102722.91;4985910;28;20744;-72
2022/10/12 00:24:31;;;;;;;4.80;4.10;;;;;;;7.92;95.22;102716.31;4988620;28;20188;-70
2022/10/12 00:26:57;;;;;;;7.93;4.40;;;;;;;7.95;95.17;102719.06;4984117;28;20938;-71
2022/10/12 00:29:22;;;;;;;7.70;4.50;;;;;;;7.96;95.70;102718.25;4990301;28;20191;-71
2022/10/12 00:31:48;;;;;;;9.30;4.63;;;;;;;7.97;94.70;102719.16;4985134;28;20218;-71
2022/10/12 00:34:13;;;;;;;8.00;4.40;;;;;;;7.98;95.47;102710.72;4990689;28;20176;-71
2022/10/12 00:36:39;;;;;;;6.97;4.40;;;;;;;7.98;95.63;102718.38;4988053;28;20208;-71
2022/10/12 00:39:07;;;;;;;10.20;5.30;;;;;;;8.02;95.66;102712.66;4986531;28;20200;-70
2022/10/12 00:41:36;;;;;;;7.67;4.60;;;;;;;8.03;96.72;102715.31;4986357;28;20218;-71
2022/10/12 00:44:01;;;;;;;10.63;5.10;;;;;;;8.05;96.31;102706.06;4986040;28;20201;-70
2022/10/12 00:46:38;;;;;;;8.43;4.67;;;;;;;8.11;96.58;102703.84;4990329;28;20187;-70
2022/10/12 00:49:21;;;;;;;6.47;4.20;;;;;;;8.12;95.46;102702.19;4988982;28;20215;-70
2022/10/12 00:52:00;;;;;;;10.23;4.60;;;;;;;8.16;95.82;102707.56;4986239;28;20228;-71
2022/10/12 00:54:31;;;;;;;7.20;4.20;;;;;;;8.19;96.60;102707.75;4988541;28;20195;-71
2022/10/12 00:56:58;;;;;;;8.83;4.00;;;;;;;8.20;96.76;102709.53;4988128;28;20207;-71
2022/10/12 00:59:31;;;;;;;7.77;4.53;;;;;;;8.23;97.36;102711.38;4990939;28;20188;-70
2022/10/12 01:01:56;;;;;;;8.00;4.53;;;;;;;8.29;97.01;102714.31;4988588;28;20314;-70
2022/10/12 01:04:23;;;;;;;7.83;4.50;;;;;;;8.32;97.29;102717.03;4990424;28;20275;-71
2022/10/12 01:06:49;;;;;;;5.43;4.37;;;;;;;8.33;97.08;102713.69;4990319;28;20199;-71
2022/10/12 01:09:14;;;;;;;9.43;5.10;;;;;;;8.35;97.48;102714.66;4990164;28;20203;-70
2022/10/12 01:11:40;;;;;;;8.30;5.23;;;;;;;8.36;97.47;102716.41;4987774;28;20216;-71
2022/10/12 01:14:06;;;;;;;6.80;4.63;;;;;;;8.40;97.15;102711.59;4989448;28;20188;-71
2022/10/12 01:16:40;;;;;;;8.73;4.80;;;;;;;8.43;97.21;102710.91;4990741;28;20762;-70
2022/10/12 01:19:18;;;;;;;7.80;5.67;;;;;;;8.46;97.52;102708.50;5002400;23;20276;-75
2022/10/12 01:21:59;;;;;;;10.13;5.87;;;;;;;8.56;98.06;102703.13;4915367;29;20205;-75
2022/10/12 01:24:40;;;;;;;6.83;5.53;;;;;;;8.60;97.98;102705.94;4936770;29;20189;-74
2022/10/12 01:27:28;;;;;;;8.97;5.50;;;;;;;8.61;97.94;102705.16;4950121;29;20325;-75
2022/10/12 01:30:12;;;;;;;7.13;5.30;;;;;;;8.65;98.53;102703.66;4931101;29;20197;-75
2022/10/12 01:32:52;;;;;;;9.83;5.40;;;;;;;8.66;98.58;102702.88;4963128;23;20244;-74
2022/10/12 01:35:27;;;;;;;10.63;5.67;;;;;;;8.70;98.40;102695.47;4968689;28;20192;-74
2022/10/12 01:38:04;;;;;;;10.17;5.33;;;;;;;8.75;99.32;102695.75;4972074;28;20208;-74
2022/10/12 01:40:38;;;;;;;7.97;4.90;;;;;;;8.77;98.30;102694.13;4969488;28;20720;-74
2022/10/12 01:43:03;;;;;;;9.37;4.67;;;;;;;8.79;98.31;102687.44;4970037;28;20184;-74
2022/10/12 01:45:29;;;;;;;12.57;5.80;;;;;;;8.82;98.92;102691.06;4968046;28;20544;-74
2022/10/12 01:47:54;;;;;;;9.60;5.67;;;;;;;8.87;99.06;102693.84;4970904;28;20679;-74
2022/10/12 01:50:24;;;;;;;11.10;5.03;;;;;;;8.88;98.80;102685.38;4969318;28;20211;-74
2022/10/12 01:53:07;;;;;;;11.47;5.60;;;;;;;8.90;98.83;102676.16;4970882;28;20189;-74
2022/10/12 01:55:45;;;;;;;10.23;5.30;;;;;;;8.92;99.14;102682.22;4966906;28;20282;-74
2022/10/12 01:58:24;;;;;;;6.47;4.50;;;;;;;8.94;99.78;102678.94;4969055;28;20192;-74
2022/10/12 02:01:20;;;;;;;12.87;4.80;;;;;;;9.00;99.67;102675.84;4985702;28;20216;-74
2022/10/12 02:03:51;;;;;;;9.33;5.30;;;;;;;9.02;99.31;102675.16;4956741;28;20227;-74
2022/10/12 02:06:21;;;;;;;11.30;5.40;;;;;;;9.03;99.52;102678.59;4970639;28;20279;-74
2022/10/12 02:08:53;;;;;;;8.17;6.03;;;;;;;9.04;99.49;102678.66;4966045;28;20211;-74
2022/10/12 02:11:21;;;;;;;10.03;5.70;;;;;;;9.08;99.44;102675.47;4965926;28;20220;-74
2022/10/12 02:13:56;;;;;;;11.57;5.90;;;;;;;9.08;99.09;102670.34;4966845;28;20574;-74
2022/10/12 02:16:26;;;;;;;8.63;5.40;;;;;;;9.09;99.70;102679.81;4965798;28;20423;-74
2022/10/12 02:18:54;;;;;;;11.27;5.33;;;;;;;9.11;99.22;102672.19;4967094;28;20192;-74
2022/10/12 02:21:24;;;;;;;9.57;5.20;;;;;;;9.14;99.62;102669.81;4966249;28;20200;-74
2022/10/12 02:23:52;;;;;;;8.63;4.97;;;;;;;9.15;99.80;102672.47;4968355;28;20272;-74
2022/10/12 02:26:20;;;;;;;11.93;5.13;;;;;;;9.16;99.39;102669.09;4963628;28;20587;-74
2022/10/12 02:28:48;;;;;;;14.47;5.47;;;;;;;9.17;99.25;102670.84;4966583;28;20189;-74
2022/10/12 02:31:28;;;;;;;12.50;5.67;;;;;;;9.20;99.59;102671.03;4961122;28;20316;-74
2022/10/12 02:34:07;;;;;;;10.80;4.83;;;;;;;9.23;99.66;102668.66;4966561;28;20215;-73
2022/10/12 02:36:44;;;;;;;7.93;4.83;;;;;;;9.25;99.50;102661.94;4964287;28;20589;-74
2022/10/12 02:39:15;;;;;;;15.70;5.70;;;;;;;9.27;100.00;102657.78;4964167;28;20184;-74
2022/10/12 02:41:48;;;;;;;12.20;5.37;;;;;;;9.29;100.00;102650.19;4962459;28;20208;-74
2022/10/12 02:44:18;;;;;;;10.10;5.97;;;;;;;9.29;100.00;102651.09;4964059;28;20192;-74
2022/10/12 02:46:47;;;;;;;11.40;5.33;;;;;;;9.32;99.65;102642.69;4965211;28;20201;-74
2022/10/12 02:49:14;;;;;;;13.27;5.47;;;;;;;9.37;99.35;102644.72;4964599;28;20211;-74
2022/10/12 02:51:41;;;;;;;11.40;5.53;;;;;;;9.38;99.25;102646.47;4966798;28;20585;-75
2022/10/12 02:54:07;;;;;;;10.87;5.53;;;;;;;9.40;99.93;102644.84;4964057;28;20564;-74
2022/10/12 02:56:32;;;;;;;11.80;5.07;;;;;;;9.41;99.57;102648.31;4965631;28;20204;-74
2022/10/12 02:58:58;;;;;;;17.83;5.50;;;;;;;9.43;99.77;102642.47;4966538;28;20200;-74
2022/10/12 03:01:24;;;;;;;14.50;5.20;;;;;;;9.48;100.00;102641.03;4971054;28;20192;-74
2022/10/12 03:03:49;;;;;;;11.97;4.93;;;;;;;9.51;99.71;102643.75;4967951;28;20189;-74
2022/10/12 03:06:14;;;;;;;15.50;5.57;;;;;;;9.52;99.80;102637.84;4970249;28;20197;-74
2022/10/12 03:08:40;;;;;;;13.00;5.50;;;;;;;9.53;100.00;102631.91;4970001;28;20279;-74
2022/10/12 03:11:10;;;;;;;11.13;5.50;;;;;;;9.56;99.31;102626.06;4969684;28;20235;-74
2022/10/12 03:13:36;;;;;;;10.70;5.43;;;;;;;9.55;99.92;102637.13;4972576;28;20271;-74
2022/10/12 03:16:08;;;;;;;10.97;4.23;;;;;;;9.57;99.83;102636.41;4968718;28;20287;-74
2022/10/12 03:18:34;;;;;;;7.93;4.67;;;;;;;9.55;99.66;102632.91;4972395;28;20220;-74
2022/10/12 03:21:00;;;;;;;12.07;5.00;;;;;;;9.55;99.70;102632.91;4967431;28;20216;-75
2022/10/12 03:23:25;;;;;;;14.20;6.10;;;;;;;9.55;100.00;102642.22;4955347;28;20181;-74
2022/10/12 03:25:51;;;;;;;10.73;4.40;;;;;;;9.56;100.00;102632.09;4970771;28;20247;-74
2022/10/12 03:28:17;;;;;;;8.83;5.27;;;;;;;9.57;99.65;102636.41;4971491;28;20212;-75
2022/10/12 03:30:43;;;;;;;11.97;5.23;;;;;;;9.60;100.00;102638.22;4969811;28;20216;-74
2022/10/12 03:33:09;;;;;;;11.60;5.17;;;;;;;9.56;99.81;102636.31;4970557;28;20207;-74
2022/10/12 03:35:35;;;;;;;10.77;5.00;;;;;;;9.60;99.73;102635.66;4973157;28;20212;-75
2022/10/12 03:38:00;;;;;;;8.87;4.87;;;;;;;9.63;99.70;102633.28;4971430;28;20200;-74
2022/10/12 03:40:26;;;;;;;13.10;4.97;;;;;;;9.67;99.94;102640.31;4972990;28;20307;-74
2022/10/12 03:42:51;;;;;;;12.57;5.33;;;;;;;9.68;99.90;102634.41;4969699;28;20232;-74
2022/10/12 03:45:17;;;;;;;11.63;5.40;;;;;;;9.66;99.94;102634.31;4972533;28;20198;-74
2022/10/12 03:47:42;;;;;;;12.43;5.07;;;;;;;9.69;99.44;102637.03;4971762;28;20238;-74
2022/10/12 03:50:08;;;;;;;11.03;4.87;;;;;;;9.70;99.37;102641.34;4972449;28;20263;-74
2022/10/12 03:52:33;;;;;;;14.27;5.60;;;;;;;9.71;99.64;102635.44;4971713;28;20213;-74
2022/10/12 03:54:59;;;;;;;12.00;5.07;;;;;;;9.72;99.69;102637.19;4971980;28;20716;-74
2022/10/12 03:57:24;;;;;;;7.47;4.93;;;;;;;9.72;99.94;102637.19;4971129;28;20239;-74
2022/10/12 03:59:49;;;;;;;13.47;5.53;;;;;;;9.73;99.27;102636.38;4971381;28;20208;-74
2022/10/12 04:02:15;;;;;;;17.87;5.60;;;;;;;9.72;99.22;102632.06;4971379;28;20185;-74
2022/10/12 04:04:40;;;;;;;14.27;5.77;;;;;;;9.70;100.00;102631.13;4971683;28;20192;-75
2022/10/12 04:07:06;;;;;;;13.13;5.00;;;;;;;9.72;99.70;102632.06;4972379;28;20192;-75
2022/10/12 04:09:31;;;;;;;17.47;5.60;;;;;;;9.75;100.00;102632.22;4971865;28;20645;-74
2022/10/12 04:11:57;;;;;;;13.57;5.37;;;;;;;9.76;99.79;102628.88;4972404;28;20216;-74
2022/10/12 04:14:22;;;;;;;15.73;5.87;;;;;;;9.78;100.00;102626.38;4969888;28;20231;-74
2022/10/12 04:16:48;;;;;;;15.33;5.23;;;;;;;9.80;99.47;102633.34;4971625;28;20211;-74
2022/10/12 04:19:13;;;;;;;13.80;6.10;;;;;;;9.78;99.62;102629.84;4970144;28;20859;-74
2022/10/12 04:21:39;;;;;;;11.30;5.37;;;;;;;9.78;99.92;102624.72;4972011;28;20537;-75
2022/10/12 04:24:05;;;;;;;11.70;5.40;;;;;;;9.77;99.93;102614.41;4969430;28;20192;-76
2022/10/12 04:26:31;;;;;;;15.13;5.50;;;;;;;9.78;100.00;102616.16;4970791;28;20197;-75
2022/10/12 04:28:56;;;;;;;10.63;4.73;;;;;;;9.79;99.89;102616.25;4972231;28;20197;-74
2022/10/12 04:31:22;;;;;;;10.97;4.83;;;;;;;9.82;99.28;102623.19;4971304;28;20212;-74
2022/10/12 04:33:47;;;;;;;16.13;5.40;;;;;;;9.80;99.75;102615.44;4971646;28;20192;-75
2022/10/12 04:36:12;;;;;;;13.03;5.00;;;;;;;9.80;100.00;102612.88;4949051;28;20700;-74
2022/10/12 04:38:38;;;;;;;10.20;5.20;;;;;;;9.78;99.85;102616.16;4985930;28;20679;-74
2022/10/12 04:41:03;;;;;;;9.53;5.20;;;;;;;9.78;99.92;102624.72;4966708;28;20215;-73
2022/10/12 04:43:29;;;;;;;10.20;5.30;;;;;;;9.80;100.00;102617.09;4969310;28;20189;-73
2022/10/12 04:45:55;;;;;;;13.17;4.80;;;;;;;9.84;100.00;102614.78;4968973;28;20207;-73
2022/10/12 04:48:22;;;;;;;9.37;4.43;;;;;;;9.85;99.89;102613.09;4962009;28;21022;-74
2022/10/12 04:50:47;;;;;;;10.80;4.57;;;;;;;9.87;99.57;102627.72;4965736;28;20225;-73
2022/10/12 04:53:13;;;;;;;13.00;4.90;;;;;;;9.88;99.80;102624.38;4966224;28;20196;-73
2022/10/12 04:55:38;;;;;;;12.17;4.83;;;;;;;9.90;99.77;102620.22;4967781;28;20192;-73
2022/10/12 04:58:04;;;;;;;13.27;4.23;;;;;;;9.90;99.37;102621.91;4966790;28;20695;-73
2022/10/12 05:00:29;;;;;;;10.03;4.07;;;;;;;9.88;99.43;102615.81;4966624;28;20212;-73
2022/10/12 05:02:54;;;;;;;11.27;4.73;;;;;;;9.89;99.25;102618.47;4964157;28;20197;-73
2022/10/12 05:05:20;;;;;;;11.20;4.70;;;;;;;9.88;99.72;102615.81;4966214;28;20283;-73
2022/10/12 05:07:45;;;;;;;8.83;4.70;;;;;;;9.85;99.88;102623.31;4963425;28;20287;-73
2022/10/12 05:10:11;;;;;;;11.67;5.07;;;;;;;9.77;99.69;102630.63;4969386;28;20247;-73
2022/10/12 05:12:36;;;;;;;11.23;5.43;;;;;;;9.72;100.00;102624.38;4963854;28;20211;-73
2022/10/12 05:15:01;;;;;;;18.67;4.93;;;;;;;9.73;100.00;102615.03;4967661;28;20287;-73
2022/10/12 05:17:27;;;;;;;12.40;5.10;;;;;;;9.67;100.00;102618.16;4964888;28;20555;-73
2022/10/12 05:19:52;;;;;;;11.03;4.93;;;;;;;9.69;100.00;102616.56;4965827;28;20217;-73
2022/10/12 05:22:18;;;;;;;12.20;4.90;;;;;;;9.66;100.00;102618.06;4964406;28;20216;-73
2022/10/12 05:24:43;;;;;;;12.80;5.33;;;;;;;9.59;100.00;102623.69;4965318;28;20287;-74
2022/10/12 05:27:08;;;;;;;9.50;4.60;;;;;;;9.56;100.00;102626.06;4967165;28;20226;-73
2022/10/12 05:29:34;;;;;;;14.40;5.07;;;;;;;9.45;99.52;102617.84;4963926;28;20212;-73
2022/10/12 05:32:00;;;;;;;10.63;4.63;;;;;;;9.38;100.00;102623.44;4965902;28;20223;-73
2022/10/12 05:34:25;;;;;;;12.07;4.77;;;;;;;9.34;99.51;102620.63;4965254;28;20204;-73
2022/10/12 05:36:50;;;;;;;10.93;4.30;;;;;;;9.23;99.57;102630.31;4967355;28;20197;-73
2022/10/12 05:39:16;;;;;;;8.23;4.37;;;;;;;9.22;99.00;102618.31;4966421;28;20212;-73
2022/10/12 05:41:41;;;;;;;11.80;4.80;;;;;;;9.13;98.76;102617.81;4968786;28;20243;-73
2022/10/12 05:44:07;;;;;;;11.80;4.60;;;;;;;9.07;98.34;102614.94;4968633;28;20247;-73
2022/10/12 05:46:32;;;;;;;11.87;4.13;;;;;;;9.02;97.33;102618.94;4968793;28;20184;-73
2022/10/12 05:48:58;;;;;;;10.03;3.53;;;;;;;8.98;97.07;102621.25;4967509;28;20264;-73
2022/10/12 05:51:23;;;;;;;10.17;3.60;;;;;;;8.93;97.14;102626.09;4968795;28;20701;-73
2022/10/12 05:53:48;;;;;;;12.00;4.40;;;;;;;8.96;96.86;102621.16;4968529;28;20188;-73
2022/10/12 05:56:14;;;;;;;12.90;4.97;;;;;;;9.01;97.34;102623.94;4968163;28;20200;-73
2022/10/12 05:58:39;;;;;;;10.90;3.80;;;;;;;8.90;97.23;102630.16;4970389;28;20279;-73
2022/10/12 06:01:07;;;;;;;9.50;3.80;;;;;;;8.86;96.94;102629.13;4970083;28;20204;-72
2022/10/12 06:03:33;;;;;;;9.73;4.13;;;;;;;8.85;97.09;102627.34;4966074;28;20193;-74
2022/10/12 06:05:59;;;;;;;12.00;4.80;;;;;;;8.77;97.21;102622.63;4968343;28;20251;-74
2022/10/12 06:08:24;;;;;;;8.93;4.13;;;;;;;8.75;95.86;102619.97;4970348;28;20560;-74
2022/10/12 06:10:50;;;;;;;9.57;3.97;;;;;;;8.65;96.69;102627.03;4969418;28;20212;-74
2022/10/12 06:13:18;;;;;;;9.93;3.70;;;;;;;8.69;96.58;102623.88;4969910;28;20307;-73
2022/10/12 06:15:45;;;;;;;9.33;3.87;;;;;;;8.65;95.92;102625.38;4970562;28;20188;-73
2022/10/12 06:18:11;;;;;;;8.40;4.40;;;;;;;8.71;96.13;102628.25;4967938;28;20196;-73
2022/10/12 06:20:36;;;;;;;11.03;4.30;;;;;;;8.76;96.16;102631.94;4970721;28;20231;-74
2022/10/12 06:23:02;;;;;;;8.83;4.70;;;;;;;8.80;96.01;102633.88;4970099;28;20199;-74
2022/10/12 06:25:27;;;;;;;9.30;4.57;;;;;;;8.72;96.24;102632.59;4970348;28;20197;-74
2022/10/12 06:27:53;;;;;;;14.93;4.40;;;;;;;8.77;95.74;102631.19;4970517;28;20692;-73
2022/10/12 06:30:18;;;;;;;7.67;4.10;;;;;;;8.66;96.18;102634.78;4970451;28;20208;-73
2022/10/12 06:32:44;;;;;;;9.17;3.83;;;;;;;8.76;96.37;102637.06;4973454;28;20281;-74
2022/10/12 06:35:10;;;;;;;9.73;3.77;;;;;;;8.73;96.07;102633.47;4974003;28;20275;-74
2022/10/12 06:37:35;;;;;;;6.53;3.93;;;;;;;8.75;96.36;102629.34;4974274;28;20193;-73
2022/10/12 06:40:01;;;;;;;8.70;3.70;;;;;;;8.87;96.36;102635.09;4978403;28;20227;-74
2022/10/12 06:42:26;;;;;;;9.77;4.17;;;;;;;8.90;96.46;102635.28;4974341;28;20188;-74
2022/10/12 06:44:52;;;;;;;10.93;4.10;;;;;;;8.91;96.08;102635.38;4972175;28;20229;-74
2022/10/12 06:47:17;;;;;;;7.97;3.90;;;;;;;9.04;96.36;102635.22;4974258;28;20530;-73
2022/10/12 06:49:42;;;;;;;15.33;4.77;;;;;;;9.20;96.72;102629.25;4973076;28;20580;-73
2022/10/12 06:52:08;;;;;;;13.50;5.30;;;;;;;9.34;96.69;102633.41;4974092;28;20564;-73
2022/10/12 06:54:33;;;;;;;14.57;5.87;;;;;;;9.52;97.63;102634.38;4973504;28;20207;-74
2022/10/12 06:56:59;;;;;;;12.30;5.00;;;;;;;9.65;97.54;102636.78;4970894;28;20204;-73
2022/10/12 06:59:24;;;;;;;9.23;4.70;;;;;;;9.78;97.81;102634.97;4973230;28;20208;-74
2022/10/12 07:01:50;;;;;;;8.73;4.37;;;;;;;9.89;97.76;102635.47;4977588;28;20188;-73
2022/10/12 07:04:17;;;;;;;9.40;4.63;;;;;;;9.95;96.77;102641.78;4973198;28;20887;-73
2022/10/12 07:06:43;;;;;;;12.60;4.50;;;;;;;10.12;96.58;102641.00;4973257;28;20201;-73
2022/10/12 07:09:08;;;;;;;11.60;5.23;;;;;;;10.30;96.24;102643.56;4971328;28;20211;-73
2022/10/12 07:11:34;;;;;;;11.03;4.07;;;;;;;10.38;96.01;102640.59;4972042;28;20229;-73
2022/10/12 07:13:59;;;;;;;13.37;4.23;;;;;;;10.54;95.78;102643.09;4971845;28;20609;-73
2022/10/12 07:16:25;;;;;;;9.87;4.40;;;;;;;10.70;94.85;102639.59;4971424;28;20192;-73
2022/10/12 07:18:50;;;;;;;13.53;3.90;;;;;;;10.85;93.61;102642.88;4973517;28;20191;-73
2022/10/12 07:21:16;;;;;;;8.30;3.90;;;;;;;10.97;92.52;102636.63;4970605;28;20208;-73
2022/10/12 07:23:41;;;;;;;13.37;4.17;;;;;;;10.90;91.50;102644.84;4972127;28;20196;-73
2022/10/12 07:26:08;;;;;;;7.37;3.43;;;;;;;10.90;90.48;102644.84;4970780;28;20195;-73
2022/10/12 07:28:34;;;;;;;10.10;3.33;;;;;;;11.15;89.76;102650.28;4972674;28;20280;-73
2022/10/12 07:31:01;;;;;;;11.87;3.57;;;;;;;11.20;88.55;102650.53;4969326;28;20220;-73
2022/10/12 07:33:33;;;;;;;11.03;3.70;;;;;;;11.35;87.84;102643.50;4971691;28;20212;-73
2022/10/12 07:36:00;;;;;;;8.20;3.43;;;;;;;11.28;87.29;102646.59;4967620;28;20211;-72
2022/10/12 07:38:26;;;;;;;11.00;3.47;;;;;;;11.36;86.98;102640.13;4970967;28;20192;-73
2022/10/12 07:40:51;;;;;;;9.77;3.73;;;;;;;11.33;86.76;102646.00;4969840;28;21317;-73
2022/10/12 07:43:17;;;;;;;10.27;4.00;;;;;;;11.56;86.52;102641.91;4965371;28;20196;-73
2022/10/12 07:45:43;;;;;;;8.10;3.60;;;;;;;11.66;85.50;102638.97;4968818;28;20200;-73
2022/10/12 07:48:08;;;;;;;13.47;3.90;;;;;;;11.91;84.88;102645.22;4969110;28;20196;-73
2022/10/12 07:50:34;;;;;;;12.17;3.57;;;;;;;11.99;84.81;102642.97;4970580;28;20210;-74
2022/10/12 07:52:59;;;;;;;9.40;3.80;;;;;;;12.28;83.77;102643.41;4970886;28;20572;-73
2022/10/12 07:55:25;;;;;;;11.60;4.23;;;;;;;12.33;83.29;102641.00;4968217;28;20531;-73
2022/10/12 07:57:50;;;;;;;8.70;3.20;;;;;;;12.46;82.12;102646.72;4969836;28;20197;-73
2022/10/12 08:00:16;;;;;;;10.80;3.87;;;;;;;12.61;81.61;102642.19;4966838;28;20304;-73
2022/10/12 08:02:41;;;;;;;7.80;3.43;;;;;;;12.73;81.03;102640.06;4963459;28;20199;-73
2022/10/12 08:05:07;;;;;;;9.40;3.13;;;;;;;13.02;79.76;102645.53;4966937;28;20219;-73
2022/10/12 08:07:32;;;;;;;9.57;3.87;;;;;;;13.25;79.67;102640.44;4966832;28;20192;-73
2022/10/12 08:09:58;;;;;;;9.83;2.97;;;;;;;13.44;78.65;102642.84;4969122;28;20264;-73
2022/10/12 08:12:23;;;;;;;10.23;3.30;;;;;;;13.71;77.22;102638.69;4971475;28;20213;-72
2022/10/12 08:14:49;;;;;;;9.53;3.47;;;;;;;13.79;76.29;102633.81;4966200;28;20189;-71
2022/10/12 08:17:14;;;;;;;16.00;4.37;;;;;;;13.53;76.17;102638.03;4967704;28;20192;-72
2022/10/12 08:19:39;;;;;;;11.87;4.07;;;;;;;14.00;76.51;102643.16;4967309;28;20248;-73
2022/10/12 08:22:05;;;;;;;11.57;3.80;;;;;;;14.46;74.65;102635.31;4972203;28;20181;-73
2022/10/12 08:24:30;;;;;;;11.67;3.20;;;;;;;14.42;72.68;102636.91;4969012;28;20184;-73
2022/10/12 08:26:56;;;;;;;10.17;3.63;;;;;;;14.46;72.12;102636.16;4971318;28;20565;-73
2022/10/12 08:29:21;;;;;;;11.27;3.60;;;;;;;14.61;72.21;102640.94;4967972;28;20207;-71
2022/10/12 08:31:49;;;;;;;10.77;3.37;;;;;;;14.64;72.69;102635.91;4970449;28;20259;-71
2022/10/12 08:34:15;;;;;;;10.47;3.40;;;;;;;15.01;70.98;102638.78;4969941;28;20200;-71
2022/10/12 08:36:41;;;;;;;8.13;2.90;;;;;;;15.14;68.85;102635.75;4969649;28;20223;-71
2022/10/12 08:39:07;;;;;;;11.67;3.27;;;;;;;15.38;69.27;102633.91;4972139;28;20219;-71
2022/10/12 08:41:35;;;;;;;14.63;4.10;;;;;;;15.55;68.93;102635.25;4969640;28;20239;-71
2022/10/12 08:44:07;;;;;;;10.27;3.57;;;;;;;15.69;67.64;102628.75;4977593;28;20189;-71
2022/10/12 08:46:33;;;;;;;10.40;3.00;;;;;;;15.95;67.10;102623.47;4969875;28;20760;-72
2022/10/12 08:49:15;;;;;;;11.00;3.28;;;;;;;16.42;65.45;102629.84;4971836;28;20231;-72
2022/10/12 08:51:53;;;;;;;12.23;3.72;;;;;;;17.13;61.25;102622.03;4969737;28;20310;-72
2022/10/12 08:54:23;;;;;;;8.75;2.90;;;;;;;18.30;57.96;102617.41;4968547;28;20192;-72
2022/10/12 08:56:52;;;;;;;9.45;3.25;;;;;;;20.22;52.46;102603.44;4970256;28;20185;-72
2022/10/12 08:59:18;;;;;;;14.10;3.83;;;;;;;22.42;46.99;102605.22;4969599;28;20292;-72
2022/10/12 09:01:56;;;;;;;8.88;3.30;;;;;;;22.92;44.10;102598.19;4971733;28;20215;-72
2022/10/12 09:04:57;;;;;;;8.25;3.00;;;;;;;23.63;42.31;102589.16;4971054;28;20950;-72
2022/10/12 09:07:29;;;;;;;10.55;3.88;;;;;;;25.05;40.15;102586.16;4985239;28;20196;-72
2022/10/12 09:10:13;;;;;;;12.23;3.30;;;;;;;25.19;39.23;102576.34;4971503;28;20303;-72
2022/10/12 09:12:41;;;;;;;10.75;3.30;;;;;;;25.33;38.54;102577.06;4971313;28;20212;-72
2022/10/12 09:15:23;;;;;;;10.27;3.58;;;;;;;25.84;37.60;102569.28;4971559;28;20263;-72
2022/10/12 09:17:52;;;;;;;8.38;3.25;;;;;;;26.15;36.41;102572.34;4971028;28;20720;-72
2022/10/12 09:20:20;;;;;;;7.65;3.00;;;;;;;26.79;34.66;102557.09;4967954;28;20256;-72
2022/10/12 09:23:03;;;;;;;9.75;3.05;;;;;;;26.26;35.20;102571.25;4971376;28;20212;-72
2022/10/12 09:25:29;;;;;;;7.15;3.25;;;;;;;27.53;33.39;102561.69;4970177;28;20268;-72
2022/10/12 09:28:11;;;;;;;8.18;3.25;;;;;;;26.08;35.30;102565.44;4971214;28;20228;-72
2022/10/12 09:30:46;;;;;;;6.63;3.25;;;;;;;25.72;35.34;102566.88;4970125;28;20208;-72
2022/10/12 09:33:21;;;;;;;8.88;3.10;;;;;;;26.25;35.19;102555.50;4971114;28;20204;-72
2022/10/12 09:35:49;;;;;;;8.60;3.60;;;;;;;26.29;34.50;102552.78;4968067;28;20712;-72
2022/10/12 09:38:15;;;;;;;8.63;3.00;;;;;;;27.81;32.53;102541.72;4970225;28;20216;-72
2022/10/12 09:40:41;;;;;;;8.90;3.28;;;;;;;26.67;34.71;102549.47;4969230;28;20231;-72
2022/10/12 09:43:08;;;;;;;9.07;2.85;;;;;;;28.47;31.26;102540.88;4969457;28;20197;-72
2022/10/12 09:45:34;;;;;;;6.63;2.83;;;;;;;28.64;31.55;102546.53;4966072;28;20181;-72
2022/10/12 09:48:14;;;;;;;6.72;2.83;;;;;;;29.79;29.48;102546.59;4973499;28;20200;-73
2022/10/12 09:50:43;;;;;;;10.75;2.75;;;;;;;29.17;30.27;102545.00;4969034;28;20216;-72
2022/10/12 09:53:18;;;;;;;7.22;2.85;;;;;;;29.53;28.97;102542.09;4968177;28;20211;-73
2022/10/12 09:55:52;;;;;;;10.13;2.75;;;;;;;30.70;28.21;102537.22;4969079;28;20635;-72
2022/10/12 09:58:20;;;;;;;8.02;3.20;;;;;;;29.69;28.22;102535.44;4965340;28;20192;-72
2022/10/12 10:01:12;;;;;;;7.85;3.10;;;;;;;29.20;29.45;102535.22;4969035;28;20209;-72
2022/10/12 10:03:37;;;;;;;7.88;2.33;;;;;;;29.64;29.07;102539.13;4965271;28;20195;-72
2022/10/12 10:06:04;;;;;;;6.15;2.45;;;;;;;30.86;26.42;102521.63;4966821;28;20188;-72
2022/10/12 10:08:39;;;;;;;5.50;2.28;;;;;;;31.49;25.59;102527.97;4964324;28;20229;-72
2022/10/12 10:11:11;;;;;;;6.75;2.67;;;;;;;30.46;26.73;102524.84;4978882;28;20219;-72
2022/10/12 10:13:37;;;;;;;7.90;2.58;;;;;;;30.51;26.67;102524.72;4962816;28;20669;-72
2022/10/12 10:16:08;;;;;;;8.13;2.60;;;;;;;31.62;26.39;102515.94;4964515;28;20239;-72
2022/10/12 10:18:43;;;;;;;4.30;2.30;;;;;;;32.02;25.36;102513.38;4964455;28;20283;-73
2022/10/12 10:21:13;;;;;;;7.50;2.80;;;;;;;31.48;25.27;102513.00;4964032;28;20211;-72
2022/10/12 10:23:44;;;;;;;6.90;3.22;;;;;;;32.27;23.90;102515.84;4964485;28;20223;-72
2022/10/12 10:26:15;;;;;;;7.78;2.38;;;;;;;32.95;23.23;102513.63;4963713;28;20184;-72
2022/10/12 10:28:46;;;;;;;6.65;2.25;;;;;;;32.40;23.32;102509.06;4964545;28;20231;-72
2022/10/12 10:31:11;;;;;;;6.13;2.08;;;;;;;33.31;22.37;102504.81;4961836;28;20216;-72
2022/10/12 10:33:38;;;;;;;5.32;2.03;;;;;;;33.79;21.52;102499.69;4963727;28;20248;-73
2022/10/12 10:36:22;;;;;;;5.60;2.20;;;;;;;31.73;23.35;102510.19;4965368;28;20696;-72
2022/10/12 10:39:01;;;;;;;4.95;2.17;;;;;;;33.27;22.84;102500.53;4967085;28;20193;-72
2022/10/12 10:41:32;;;;;;;4.75;2.13;;;;;;;33.00;22.45;102493.88;4968210;28;20652;-73
2022/10/12 10:43:58;;;;;;;5.85;1.95;;;;;;;34.22;20.86;102485.94;4962879;28;20189;-73
2022/10/12 10:46:30;;;;;;;5.70;2.42;;;;;;;33.41;22.14;102491.91;4963582;28;20207;-73
2022/10/12 10:49:05;;;;;;;5.40;2.13;;;;;;;34.50;21.26;102486.22;4966622;28;20200;-73
2022/10/12 10:51:41;;;;;;;4.32;2.10;;;;;;;33.35;21.50;102498.41;4963549;28;20208;-73
2022/10/12 10:54:26;;;;;;;5.95;2.17;;;;;;;33.55;21.05;102494.75;4966350;28;20553;-72
2022/10/12 10:57:00;;;;;;;6.70;2.08;;;;;;;33.15;22.21;102484.31;4951398;28;20201;-72
2022/10/12 10:59:32;;;;;;;6.60;2.22;;;;;;;33.95;21.26;102489.16;4969425;28;20212;-72
2022/10/12 11:02:35;;;;;;;5.30;1.90;;;;;;;35.25;20.66;102481.13;4963753;28;20211;-72
2022/10/12 11:05:17;;;;;;;5.28;2.00;;;;;;;35.76;19.67;102473.66;5003110;28;20293;-73
2022/10/12 11:07:53;;;;;;;8.48;2.40;;;;;;;36.72;18.39;102473.03;4969399;28;20205;-73
2022/10/12 11:10:29;;;;;;;4.95;2.25;;;;;;;34.97;19.87;102473.84;4965292;28;20208;-73
2022/10/12 11:13:12;;;;;;;5.95;2.45;;;;;;;34.90;20.12;102468.94;4967274;28;20848;-73
2022/10/12 11:15:49;;;;;;;4.93;2.22;;;;;;;36.55;19.51;102470.53;4965804;28;20188;-73
2022/10/12 11:18:22;;;;;;;7.03;2.33;;;;;;;35.73;19.62;102459.66;4969555;28;20192;-73
2022/10/12 11:20:54;;;;;;;4.80;1.98;;;;;;;36.84;18.59;102450.84;4970970;28;20215;-73
2022/10/12 11:23:39;;;;;;;5.47;2.00;;;;;;;36.86;18.93;102448.94;4972401;28;20195;-73
2022/10/12 11:26:10;;;;;;;6.70;2.47;;;;;;;36.05;18.72;102440.72;4972755;28;20199;-73
2022/10/12 11:28:37;;;;;;;5.85;2.05;;;;;;;35.84;19.25;102441.19;4972362;28;20267;-73
2022/10/12 11:31:06;;;;;;;3.35;1.95;;;;;;;37.01;17.99;102445.25;4971334;28;20629;-73
2022/10/12 11:33:38;;;;;;;7.50;2.45;;;;;;;36.29;18.40;102436.56;4973430;28;20979;-73